createdAt,value
2023-01-20T00:01:25.862Z,60.59
2023-01-20T00:03:53.601Z,60.60
2023-01-20T00:06:22.058Z,60.49
2023-01-20T00:08:51.939Z,60.57
2023-01-20T00:11:18.615Z,60.50
2023-01-20T00:13:45.265Z,60.50
2023-01-20T00:16:12.039Z,60.41
2023-01-20T00:18:39.422Z,60.66
2023-01-20T00:21:07.571Z,60.46
2023-01-20T00:23:34.441Z,60.53
2023-01-20T00:26:09.400Z,60.76
2023-01-20T00:28:36.779Z,61.06
2023-01-20T00:31:19.272Z,61.09
2023-01-20T00:33:46.970Z,60.69
2023-01-20T00:36:14.296Z,61.24
2023-01-20T00:38:41.040Z,60.97
2023-01-20T00:41:08.156Z,61.42
2023-01-20T00:43:35.322Z,61.86
2023-01-20T00:46:02.043Z,61.65
2023-01-20T00:48:28.720Z,61.27
2023-01-20T00:50:55.363Z,60.59
2023-01-20T00:53:22.050Z,60.56
2023-01-20T00:55:48.788Z,60.01
2023-01-20T00:58:15.832Z,60.63
2023-01-20T01:00:42.870Z,60.84
2023-01-20T01:03:10.641Z,60.34
2023-01-20T01:05:37.746Z,60.28
2023-01-20T01:08:04.787Z,59.85
2023-01-20T01:10:31.906Z,59.43
2023-01-20T01:13:01.783Z,59.39
2023-01-20T01:15:28.835Z,59.29
2023-01-20T01:17:56.439Z,58.95
2023-01-20T01:20:23.100Z,58.69
2023-01-20T01:22:49.830Z,58.88
2023-01-20T01:25:16.603Z,59.29
2023-01-20T01:27:43.254Z,58.94
2023-01-20T01:30:10.319Z,59.27
2023-01-20T01:32:37.048Z,59.18
2023-01-20T01:35:03.767Z,59.29
2023-01-20T01:37:30.402Z,59.31
2023-01-20T01:39:57.056Z,59.45
2023-01-20T01:42:25.156Z,59.18
2023-01-20T01:45:03.985Z,59.31
2023-01-20T01:47:30.661Z,58.98
2023-01-20T01:49:57.433Z,58.87
2023-01-20T01:52:25.135Z,58.61
2023-01-20T01:54:53.097Z,58.65
2023-01-20T01:57:19.811Z,58.74
2023-01-20T01:59:46.472Z,59.08
2023-01-20T02:02:13.280Z,59.04
2023-01-20T02:04:42.831Z,58.86
2023-01-20T02:07:12.034Z,58.75
2023-01-20T02:09:38.819Z,58.65
2023-01-20T02:12:08.757Z,58.70
2023-01-20T02:14:37.102Z,58.46
2023-01-20T02:17:06.572Z,58.83
2023-01-20T02:19:43.909Z,58.73
2023-01-20T02:22:23.142Z,58.74
2023-01-20T02:24:58.778Z,58.76
2023-01-20T02:27:40.386Z,58.93
2023-01-20T02:30:13.345Z,58.95
2023-01-20T02:32:57.929Z,58.84
2023-01-20T02:35:29.441Z,58.63
2023-01-20T02:38:03.168Z,58.57
2023-01-20T02:40:39.047Z,59.01
2023-01-20T02:43:11.659Z,59.24
2023-01-20T02:46:03.018Z,59.91
2023-01-20T02:48:37.057Z,60.74
2023-01-20T02:51:03.710Z,60.25
2023-01-20T02:53:37.924Z,60.95
2023-01-20T02:56:04.848Z,61.25
2023-01-20T02:58:48.570Z,60.46
2023-01-20T03:01:26.415Z,60.40
2023-01-20T03:03:54.251Z,60.54
2023-01-20T03:06:23.129Z,60.42
2023-01-20T03:08:52.557Z,59.88
2023-01-20T03:11:19.294Z,59.71
2023-01-20T03:13:45.945Z,59.41
2023-01-20T03:16:15.731Z,59.31
2023-01-20T03:18:42.342Z,59.12
2023-01-20T03:21:10.176Z,58.89
2023-01-20T03:23:40.320Z,59.03
2023-01-20T03:26:11.261Z,58.83
2023-01-20T03:28:38.133Z,58.84
2023-01-20T03:31:11.644Z,58.64
2023-01-20T03:33:38.831Z,58.76
2023-01-20T03:36:05.911Z,58.56
2023-01-20T03:38:32.681Z,58.86
2023-01-20T03:41:02.464Z,58.89
2023-01-20T03:43:31.875Z,58.94
2023-01-20T03:46:05.247Z,58.75
2023-01-20T03:48:38.671Z,59.12
2023-01-20T03:51:08.340Z,58.95
2023-01-20T03:54:01.002Z,59.10
2023-01-20T03:56:41.732Z,58.94
2023-01-20T03:59:10.602Z,59.07
2023-01-20T04:01:39.475Z,59.46
2023-01-20T04:04:08.781Z,59.34
2023-01-20T04:06:37.191Z,59.02
2023-01-20T04:09:13.697Z,59.28
2023-01-20T04:11:40.422Z,59.63
2023-01-20T04:14:08.826Z,59.87
2023-01-20T04:16:36.230Z,60.49
2023-01-20T04:19:03.231Z,60.37
2023-01-20T04:21:39.359Z,60.37
2023-01-20T04:24:14.900Z,60.35
2023-01-20T04:26:41.732Z,60.41
2023-01-20T04:29:11.140Z,60.52
2023-01-20T04:31:39.717Z,60.74
2023-01-20T04:34:06.702Z,60.51
2023-01-20T04:36:33.407Z,60.54
2023-01-20T04:39:00.036Z,60.63
2023-01-20T04:41:26.656Z,60.33
2023-01-20T04:43:53.275Z,60.37
2023-01-20T04:46:19.963Z,60.30
2023-01-20T04:48:46.563Z,60.21
2023-01-20T04:51:13.241Z,60.38
2023-01-20T04:53:39.901Z,60.37
2023-01-20T04:56:13.030Z,60.49
2023-01-20T04:58:40.242Z,60.47
2023-01-20T05:01:07.232Z,60.37
2023-01-20T05:03:34.161Z,60.64
2023-01-20T05:06:00.991Z,60.24
2023-01-20T05:08:27.680Z,60.37
2023-01-20T05:10:54.318Z,60.85
2023-01-20T05:13:21.023Z,60.75
2023-01-20T05:15:47.817Z,61.27
2023-01-20T05:18:14.769Z,61.79
2023-01-20T05:20:41.408Z,61.59
2023-01-20T05:23:08.165Z,61.50
2023-01-20T05:25:34.778Z,60.91
2023-01-20T05:28:01.420Z,60.49
2023-01-20T05:30:28.083Z,60.71
2023-01-20T05:32:54.850Z,60.27
2023-01-20T05:35:21.557Z,60.68
2023-01-20T05:37:48.285Z,60.41
2023-01-20T05:40:14.992Z,60.27
2023-01-20T05:42:41.601Z,59.89
2023-01-20T05:45:09.391Z,59.91
2023-01-20T05:47:36.204Z,60.01
2023-01-20T05:50:03.802Z,59.87
2023-01-20T05:52:30.406Z,60.02
2023-01-20T05:54:57.061Z,60.02
2023-01-20T05:57:24.671Z,60.08
2023-01-20T05:59:52.194Z,59.84
2023-01-20T06:02:19.634Z,59.61
2023-01-20T06:04:46.884Z,59.68
2023-01-20T06:07:13.852Z,59.94
2023-01-20T06:09:40.524Z,59.67
2023-01-20T06:12:07.348Z,59.64
2023-01-20T06:14:33.973Z,59.95
2023-01-20T06:17:00.577Z,59.82
2023-01-20T06:19:27.243Z,60.38
2023-01-20T06:21:53.911Z,60.87
2023-01-20T06:24:20.571Z,60.74
2023-01-20T06:26:49.817Z,61.22
2023-01-20T06:29:16.449Z,61.48
2023-01-20T06:31:44.475Z,61.46
2023-01-20T06:34:11.871Z,61.36
2023-01-20T06:36:38.741Z,61.77
2023-01-20T06:39:05.452Z,61.77
2023-01-20T06:41:32.137Z,61.68
2023-01-20T06:43:58.946Z,61.60
2023-01-20T06:46:26.065Z,61.38
2023-01-20T06:48:54.884Z,61.52
2023-01-20T06:51:21.563Z,61.23
2023-01-20T06:53:48.235Z,61.99
2023-01-20T06:56:15.869Z,62.40
2023-01-20T06:58:44.013Z,62.33
2023-01-20T07:01:12.548Z,62.92
2023-01-20T07:03:39.401Z,62.94
2023-01-20T07:06:14.032Z,63.00
2023-01-20T07:08:40.788Z,63.25
2023-01-20T07:11:07.416Z,63.64
2023-01-20T07:13:34.062Z,63.70
2023-01-20T07:16:00.760Z,63.92
2023-01-20T07:18:27.497Z,63.01
2023-01-20T07:20:54.854Z,62.88
2023-01-20T07:23:22.122Z,62.62
2023-01-20T07:25:56.644Z,62.27
2023-01-20T07:28:23.316Z,61.95
2023-01-20T07:30:49.997Z,62.73
2023-01-20T07:33:16.728Z,62.16
2023-01-20T07:35:43.329Z,62.34
2023-01-20T07:38:09.978Z,62.38
2023-01-20T07:40:36.635Z,61.89
2023-01-20T07:43:03.945Z,61.53
2023-01-20T07:45:39.923Z,61.64
2023-01-20T07:48:15.604Z,61.84
2023-01-20T07:50:42.285Z,62.41
2023-01-20T07:53:08.865Z,61.90
2023-01-20T07:55:35.535Z,62.34
2023-01-20T07:58:02.384Z,61.99
2023-01-20T08:00:29.002Z,61.87
2023-01-20T08:02:55.635Z,61.92
2023-01-20T08:05:22.496Z,62.17
2023-01-20T08:07:52.460Z,67.18
2023-01-20T08:10:21.294Z,63.69
2023-01-20T08:12:47.942Z,62.27
2023-01-20T08:15:14.811Z,65.77
2023-01-20T08:17:41.613Z,62.71
2023-01-20T08:20:09.884Z,64.53
2023-01-20T08:22:36.525Z,63.82
2023-01-20T08:25:03.158Z,58.69
2023-01-20T08:27:29.750Z,60.00
2023-01-20T08:29:56.357Z,60.03
2023-01-20T08:32:23.100Z,59.33
2023-01-20T08:34:49.691Z,58.57
2023-01-20T08:37:16.442Z,59.22
2023-01-20T08:39:43.341Z,57.99
2023-01-20T08:42:10.041Z,57.20
2023-01-20T08:44:36.683Z,56.89
2023-01-20T08:47:03.360Z,57.84
2023-01-20T08:49:30.237Z,57.96
2023-01-20T08:51:57.087Z,58.19
2023-01-20T08:54:23.802Z,58.10
2023-01-20T08:56:51.605Z,58.09
2023-01-20T08:59:18.707Z,57.82
2023-01-20T09:01:45.484Z,57.77
2023-01-20T09:04:12.470Z,58.37
2023-01-20T09:06:39.142Z,57.97
2023-01-20T09:09:06.007Z,58.38
2023-01-20T09:11:32.813Z,58.04
2023-01-20T09:13:59.563Z,57.75
2023-01-20T09:16:26.249Z,57.68
2023-01-20T09:18:52.799Z,57.45
2023-01-20T09:21:19.543Z,57.22
2023-01-20T09:23:48.305Z,57.01
2023-01-20T09:26:29.598Z,57.01
2023-01-20T09:29:09.727Z,56.44
2023-01-20T09:31:40.438Z,56.22
2023-01-20T09:34:07.260Z,55.79
2023-01-20T09:36:33.946Z,55.85
2023-01-20T09:39:18.977Z,55.68
2023-01-20T09:42:06.574Z,55.52
2023-01-20T09:44:40.484Z,55.26
2023-01-20T09:47:30.623Z,55.00
2023-01-20T09:50:38.762Z,54.85
2023-01-20T09:53:05.424Z,54.48
2023-01-20T09:55:50.217Z,54.40
2023-01-20T09:58:32.713Z,53.88
2023-01-20T10:01:17.122Z,53.96
2023-01-20T10:03:53.051Z,53.39
2023-01-20T10:06:24.879Z,53.18
2023-01-20T10:09:04.942Z,52.30
2023-01-20T10:11:38.247Z,52.12
2023-01-20T10:14:18.666Z,53.85
2023-01-20T10:16:50.235Z,53.84
2023-01-20T10:19:43.056Z,53.79
2023-01-20T10:22:12.497Z,54.82
2023-01-20T10:24:44.663Z,54.97
2023-01-20T10:27:11.289Z,54.96
2023-01-20T10:29:39.539Z,55.81
2023-01-20T10:32:14.278Z,55.93
2023-01-20T10:34:44.236Z,55.85
2023-01-20T10:37:11.679Z,56.70
2023-01-20T10:39:41.241Z,60.38
2023-01-20T10:42:15.272Z,60.84
2023-01-20T10:44:42.061Z,57.92
2023-01-20T10:47:08.654Z,57.21
2023-01-20T10:49:48.894Z,54.90
2023-01-20T10:52:18.544Z,54.87
2023-01-20T10:54:54.415Z,54.65
2023-01-20T10:57:21.668Z,54.57
2023-01-20T10:59:51.087Z,54.66
2023-01-20T11:02:17.994Z,54.70
2023-01-20T11:04:45.903Z,54.33
2023-01-20T11:07:15.603Z,54.17
2023-01-20T11:09:42.722Z,54.11
2023-01-20T11:12:17.259Z,54.10
2023-01-20T11:14:45.282Z,54.15
2023-01-20T11:17:16.724Z,54.22
2023-01-20T11:19:51.191Z,54.01
2023-01-20T11:22:22.812Z,53.91
2023-01-20T11:24:53.683Z,53.19
2023-01-20T11:27:21.487Z,53.05
2023-01-20T11:30:01.364Z,52.76
2023-01-20T11:32:28.023Z,52.60
2023-01-20T11:34:55.864Z,52.69
2023-01-20T11:37:25.707Z,52.14
2023-01-20T11:39:55.496Z,51.74
2023-01-20T11:42:26.436Z,52.98
2023-01-20T11:44:54.499Z,53.33
2023-01-20T11:47:23.672Z,54.09
2023-01-20T11:50:08.455Z,54.29
2023-01-20T11:52:36.763Z,55.27
2023-01-20T11:55:23.754Z,54.56
2023-01-20T11:57:55.545Z,54.57
2023-01-20T12:00:30.239Z,55.32
2023-01-20T12:03:03.168Z,55.32
2023-01-20T12:05:29.921Z,55.23
2023-01-20T12:07:56.634Z,55.23
2023-01-20T12:10:29.426Z,55.08
2023-01-20T12:13:16.305Z,55.46
2023-01-20T12:15:45.485Z,54.38
2023-01-20T12:18:16.821Z,53.76
2023-01-20T12:20:56.165Z,53.16
2023-01-20T12:23:22.904Z,53.08
2023-01-20T12:25:56.846Z,53.72
2023-01-20T12:28:27.232Z,54.81
2023-01-20T12:30:56.889Z,54.73
2023-01-20T12:33:28.898Z,54.47
2023-01-20T12:36:14.280Z,53.77
2023-01-20T12:38:53.404Z,53.07
2023-01-20T12:41:33.402Z,52.75
2023-01-20T12:44:13.289Z,52.85
2023-01-20T12:47:03.196Z,53.16
2023-01-20T12:49:42.427Z,53.12
2023-01-20T12:52:15.251Z,53.53
2023-01-20T12:54:48.659Z,54.01
2023-01-20T12:57:28.537Z,54.31
2023-01-20T13:00:14.036Z,54.90
2023-01-20T13:03:19.516Z,54.97
2023-01-20T13:05:46.120Z,54.74
2023-01-20T13:08:18.631Z,54.50
2023-01-20T13:11:00.294Z,54.61
2023-01-20T13:13:56.904Z,54.95
2023-01-20T13:16:30.546Z,55.37
2023-01-20T13:19:17.584Z,55.29
2023-01-20T13:21:44.280Z,52.54
2023-01-20T13:24:18.892Z,53.01
2023-01-20T13:26:46.964Z,51.89
2023-01-20T13:29:21.580Z,51.20
2023-01-20T13:31:50.530Z,50.15
2023-01-20T13:34:23.220Z,49.83
2023-01-20T13:37:07.183Z,48.81
2023-01-20T13:39:45.790Z,49.09
2023-01-20T13:42:31.037Z,48.61
2023-01-20T13:45:16.293Z,46.86
2023-01-20T13:47:55.043Z,46.39
2023-01-20T13:50:24.944Z,45.72
2023-01-20T13:52:54.720Z,44.70
2023-01-20T13:55:28.343Z,44.09
2023-01-20T13:57:54.991Z,42.74
2023-01-20T14:00:22.307Z,41.81
2023-01-20T14:02:49.803Z,41.44
2023-01-20T14:05:23.928Z,41.56
2023-01-20T14:07:50.579Z,41.57
2023-01-20T14:10:18.577Z,41.39
2023-01-20T14:12:45.317Z,41.36
2023-01-20T14:15:24.973Z,41.35
2023-01-20T14:17:55.941Z,41.65
2023-01-20T14:20:24.163Z,41.46
2023-01-20T14:22:50.941Z,42.04
2023-01-20T14:25:25.133Z,42.06
2023-01-20T14:27:54.226Z,41.79
2023-01-20T14:30:27.160Z,41.46
2023-01-20T14:32:53.950Z,41.41
2023-01-20T14:35:29.966Z,40.87
2023-01-20T14:37:57.117Z,40.83
2023-01-20T14:40:31.329Z,40.64
2023-01-20T14:42:59.435Z,40.61
2023-01-20T14:45:27.920Z,40.34
2023-01-20T14:47:55.425Z,39.86
2023-01-20T14:50:22.355Z,39.83
2023-01-20T14:52:49.234Z,39.10
2023-01-20T14:55:35.649Z,38.62
2023-01-20T14:58:09.654Z,37.88
2023-01-20T15:00:42.296Z,37.69
2023-01-20T15:03:25.597Z,37.62
2023-01-20T15:05:55.150Z,36.76
2023-01-20T15:09:04.407Z,36.67
2023-01-20T15:11:33.027Z,35.98
2023-01-20T15:14:02.503Z,35.66
2023-01-20T15:16:38.940Z,34.69
2023-01-20T15:19:20.865Z,34.85
2023-01-20T15:21:49.029Z,33.89
2023-01-20T15:24:20.396Z,33.97
2023-01-20T15:26:48.389Z,34.28
2023-01-20T15:29:30.475Z,33.54
2023-01-20T15:31:58.589Z,34.06
2023-01-20T15:34:25.893Z,34.31
2023-01-20T15:36:53.417Z,33.52
2023-01-20T15:39:22.030Z,33.81
2023-01-20T15:41:53.850Z,32.87
2023-01-20T15:44:21.159Z,31.84
2023-01-20T15:46:48.135Z,32.10
2023-01-20T15:49:15.225Z,32.02
2023-01-20T15:51:42.793Z,31.50
2023-01-20T15:54:09.807Z,31.54
2023-01-20T15:56:38.871Z,31.64
2023-01-20T15:59:16.232Z,31.97
2023-01-20T16:01:43.422Z,31.84
2023-01-20T16:04:10.160Z,31.99
2023-01-20T16:06:37.539Z,32.05
2023-01-20T16:09:13.992Z,32.11
2023-01-20T16:11:42.293Z,32.18
2023-01-20T16:14:08.944Z,31.94
2023-01-20T16:16:35.843Z,32.05
2023-01-20T16:19:02.627Z,36.01
2023-01-20T16:21:29.285Z,38.75
2023-01-20T16:23:55.917Z,42.51
2023-01-20T16:26:24.427Z,43.46
2023-01-20T16:28:51.720Z,43.98
2023-01-20T16:31:18.976Z,44.99
2023-01-20T16:33:45.856Z,46.01
2023-01-20T16:36:13.764Z,46.66
2023-01-20T16:38:40.747Z,48.44
2023-01-20T16:41:13.411Z,49.98
2023-01-20T16:43:43.311Z,50.93
2023-01-20T16:46:30.202Z,52.17
2023-01-20T16:49:01.784Z,53.14
2023-01-20T16:51:29.355Z,53.80
2023-01-20T16:53:56.911Z,54.21
2023-01-20T16:56:24.771Z,54.32
2023-01-20T16:58:53.101Z,54.46
2023-01-20T17:01:24.815Z,54.76
2023-01-20T17:03:52.762Z,55.08
2023-01-20T17:06:20.697Z,55.26
2023-01-20T17:08:51.119Z,56.09
2023-01-20T17:11:21.669Z,56.60
2023-01-20T17:13:48.625Z,56.88
2023-01-20T17:16:15.401Z,57.03
2023-01-20T17:18:45.208Z,57.05
2023-01-20T17:21:12.871Z,57.29
2023-01-20T17:23:39.902Z,57.38
2023-01-20T17:26:07.603Z,57.30
2023-01-20T17:28:34.241Z,56.59
2023-01-20T17:31:04.653Z,56.61
2023-01-20T17:33:31.569Z,57.00
2023-01-20T17:36:02.114Z,56.93
2023-01-20T17:38:29.721Z,57.10
2023-01-20T17:41:03.237Z,56.94
2023-01-20T17:43:33.820Z,57.40
2023-01-20T17:46:02.732Z,57.83
2023-01-20T17:48:29.457Z,57.58
2023-01-20T17:50:59.215Z,58.16
2023-01-20T17:53:26.606Z,58.09
2023-01-20T17:56:03.036Z,58.27
2023-01-20T17:58:37.846Z,58.14
2023-01-20T18:01:15.064Z,58.25
2023-01-20T18:03:43.169Z,58.04
2023-01-20T18:06:14.511Z,58.22
2023-01-20T18:08:41.293Z,58.42
2023-01-20T18:11:16.784Z,58.54
2023-01-20T18:13:45.498Z,58.55
2023-01-20T18:16:13.782Z,58.89
2023-01-20T18:18:41.252Z,59.23
2023-01-20T18:21:11.847Z,59.32
2023-01-20T18:23:39.302Z,59.07
2023-01-20T18:26:06.377Z,59.32
2023-01-20T18:28:33.919Z,59.34
2023-01-20T18:31:03.153Z,59.53
2023-01-20T18:33:29.842Z,59.07
2023-01-20T18:35:56.488Z,59.03
2023-01-20T18:38:23.091Z,58.90
2023-01-20T18:40:49.819Z,58.79
2023-01-20T18:43:16.432Z,58.62
2023-01-20T18:45:43.119Z,58.52
2023-01-20T18:48:10.030Z,58.72
2023-01-20T18:50:36.624Z,58.33
2023-01-20T18:53:03.201Z,57.83
2023-01-20T18:55:31.629Z,57.40
2023-01-20T18:57:58.280Z,56.92
2023-01-20T19:00:25.101Z,56.84
2023-01-20T19:02:52.365Z,57.05
2023-01-20T19:05:19.248Z,57.07
2023-01-20T19:07:50.458Z,57.47
2023-01-20T19:10:17.843Z,57.19
2023-01-20T19:12:44.824Z,56.85
2023-01-20T19:15:13.637Z,57.07
2023-01-20T19:17:40.308Z,56.78
2023-01-20T19:20:07.267Z,56.56
2023-01-20T19:22:33.884Z,56.78
2023-01-20T19:25:00.611Z,56.98
2023-01-20T19:27:27.418Z,57.10
2023-01-20T19:29:54.035Z,56.97
2023-01-20T19:32:20.721Z,56.81
2023-01-20T19:34:47.357Z,57.10
2023-01-20T19:37:13.992Z,57.01
2023-01-20T19:39:40.576Z,56.90
2023-01-20T19:42:07.239Z,56.75
2023-01-20T19:44:33.894Z,56.75
2023-01-20T19:47:04.243Z,56.93
2023-01-20T19:49:32.049Z,57.04
2023-01-20T19:51:59.895Z,57.01
2023-01-20T19:54:28.666Z,57.61
2023-01-20T19:56:55.341Z,57.48
2023-01-20T19:59:21.949Z,57.37
2023-01-20T20:01:48.610Z,57.78
2023-01-20T20:04:15.381Z,57.40
2023-01-20T20:06:48.420Z,57.42
2023-01-20T20:09:18.933Z,57.53
2023-01-20T20:11:46.141Z,56.98
2023-01-20T20:14:14.131Z,56.92
2023-01-20T20:16:41.209Z,56.94
2023-01-20T20:19:08.801Z,56.56
2023-01-20T20:21:35.525Z,56.55
2023-01-20T20:24:03.064Z,56.47
2023-01-20T20:26:31.146Z,56.41
2023-01-20T20:29:01.556Z,56.48
2023-01-20T20:31:31.222Z,56.18
2023-01-20T20:33:58.726Z,55.85
2023-01-20T20:36:28.379Z,55.40
2023-01-20T20:38:55.361Z,55.69
2023-01-20T20:41:22.524Z,54.58
2023-01-20T20:43:49.209Z,54.21
2023-01-20T20:46:16.443Z,53.30
2023-01-20T20:48:43.178Z,53.84
2023-01-20T20:51:11.409Z,54.67
2023-01-20T20:53:38.100Z,55.09
2023-01-20T20:56:12.519Z,55.37
2023-01-20T20:58:51.607Z,55.07
2023-01-20T21:01:26.722Z,54.66
2023-01-20T21:03:54.013Z,54.70
2023-01-20T21:06:22.717Z,54.71
2023-01-20T21:08:49.599Z,54.58
2023-01-20T21:11:16.269Z,54.28
2023-01-20T21:13:44.442Z,55.05
2023-01-20T21:16:14.098Z,55.51
2023-01-20T21:18:41.690Z,55.44
2023-01-20T21:21:11.632Z,55.71
2023-01-20T21:23:38.381Z,56.31
2023-01-20T21:26:06.439Z,56.81
2023-01-20T21:28:35.643Z,55.20
2023-01-20T21:31:15.084Z,54.53
2023-01-20T21:33:42.713Z,54.29
2023-01-20T21:36:12.414Z,54.38
2023-01-20T21:38:41.482Z,54.51
2023-01-20T21:41:10.016Z,54.19
2023-01-20T21:43:57.300Z,54.06
2023-01-20T21:46:24.434Z,52.63
2023-01-20T21:49:09.468Z,52.51
2023-01-20T21:51:54.661Z,52.24
2023-01-20T21:54:21.372Z,51.95
2023-01-20T21:56:48.844Z,52.11
2023-01-20T21:59:15.549Z,51.70
2023-01-20T22:01:44.594Z,50.35
2023-01-20T22:04:11.271Z,50.86
2023-01-20T22:06:37.893Z,50.48
2023-01-20T22:09:04.541Z,49.87
2023-01-20T22:11:31.177Z,49.37
2023-01-20T22:13:57.870Z,49.21
2023-01-20T22:16:25.604Z,50.02
2023-01-20T22:18:52.810Z,50.46
2023-01-20T22:21:20.274Z,50.50
2023-01-20T22:23:46.933Z,50.24
2023-01-20T22:26:13.954Z,51.06
2023-01-20T22:28:40.719Z,52.29
2023-01-20T22:31:08.315Z,51.49
2023-01-20T22:33:35.005Z,51.44
2023-01-20T22:36:01.742Z,51.89
2023-01-20T22:38:28.655Z,50.80
2023-01-20T22:40:55.301Z,51.46
2023-01-20T22:43:21.923Z,50.64
2023-01-20T22:45:48.782Z,50.03
2023-01-20T22:48:15.453Z,48.32
2023-01-20T22:50:42.058Z,48.34
2023-01-20T22:53:08.731Z,49.16
2023-01-20T22:55:35.324Z,47.97
2023-01-20T22:58:01.935Z,48.72
2023-01-20T23:00:28.577Z,48.68
2023-01-20T23:02:55.193Z,48.92
2023-01-20T23:05:21.765Z,49.23
2023-01-20T23:07:48.513Z,49.07
2023-01-20T23:10:35.092Z,48.59
2023-01-20T23:13:01.771Z,49.52
2023-01-20T23:15:28.814Z,50.35
2023-01-20T23:17:55.904Z,50.36
2023-01-20T23:20:22.543Z,51.10
2023-01-20T23:22:49.191Z,51.95
2023-01-20T23:25:17.781Z,52.25
2023-01-20T23:27:44.426Z,53.01
2023-01-20T23:30:11.378Z,52.43
2023-01-20T23:32:38.173Z,52.78
2023-01-20T23:35:05.014Z,52.79
2023-01-20T23:37:31.637Z,53.27
2023-01-20T23:39:58.214Z,53.19
2023-01-20T23:42:24.860Z,53.70
2023-01-20T23:44:51.706Z,53.69
2023-01-20T23:47:18.412Z,53.08
2023-01-20T23:49:45.065Z,52.71
2023-01-20T23:52:11.688Z,52.31
2023-01-20T23:54:38.272Z,53.01
2023-01-20T23:57:04.944Z,52.96
2023-01-20T23:59:31.619Z,53.30
